Time;durP1;ratioP1;P1;durP2;ratioP2;P2;SDS_P1;SDS_P2;PMS_P1;PMS_P2;Temp;Humidity;BMP_temperature;BMP_pressure;BME280_temperature;BME280_humidity;BME280_pressure;Samples;Min_cycle;Max_cycle;Signal;HPM_P1;HPM_P2
2022/11/21 00:00:31;;;;;;;46.75;17.05;;;4.10;99.90;;;;;;5035297;28;20021;-41
2022/11/21 00:03:01;;;;;;;39.72;15.73;;;4.10;99.90;;;;;;5043172;28;20025;-37
2022/11/21 00:05:31;;;;;;;37.58;14.85;;;4.00;99.90;;;;;;5053658;28;20029;-39
2022/11/21 00:07:57;;;;;;;40.22;16.75;;;4.10;99.90;;;;;;5053436;28;20104;-36
2022/11/21 00:10:24;;;;;;;43.40;16.27;;;4.10;99.90;;;;;;5049677;28;20520;-37
2022/11/21 00:12:56;;;;;;;46.08;16.65;;;4.00;99.90;;;;;;5053374;28;20040;-38
2022/11/21 00:15:23;;;;;;;39.65;16.75;;;4.00;99.90;;;;;;5053459;28;20362;-38
2022/11/21 00:17:49;;;;;;;41.33;16.17;;;4.00;99.90;;;;;;5053451;28;20021;-37
2022/11/21 00:20:16;;;;;;;43.20;16.35;;;4.00;99.90;;;;;;5053429;28;20096;-37
2022/11/21 00:22:41;;;;;;;47.55;16.60;;;4.10;99.90;;;;;;5053462;28;20025;-38
2022/11/21 00:25:08;;;;;;;45.40;16.63;;;4.10;99.90;;;;;;5032646;28;20060;-37
2022/11/21 00:27:33;;;;;;;42.28;16.35;;;4.10;99.90;;;;;;5052412;28;20110;-38
2022/11/21 00:29:59;;;;;;;39.60;15.98;;;4.10;99.90;;;;;;5049815;28;20525;-37
2022/11/21 00:32:24;;;;;;;45.25;15.68;;;4.10;99.90;;;;;;5050478;28;20029;-37
2022/11/21 00:34:50;;;;;;;47.90;17.50;;;4.10;99.90;;;;;;5050418;28;20092;-37
2022/11/21 00:37:15;;;;;;;44.17;17.23;;;4.00;99.90;;;;;;5043760;28;20029;-37
2022/11/21 00:39:41;;;;;;;43.47;15.43;;;4.00;99.90;;;;;;5050899;28;20550;-38
2022/11/21 00:42:07;;;;;;;38.78;15.52;;;4.00;99.90;;;;;;5052696;28;20113;-38
2022/11/21 00:44:32;;;;;;;49.05;17.38;;;4.00;99.90;;;;;;5052322;28;20477;-38
2022/11/21 00:46:58;;;;;;;48.20;18.63;;;4.10;99.90;;;;;;5051084;28;20021;-39
2022/11/21 00:49:23;;;;;;;39.83;16.83;;;4.10;99.90;;;;;;5052935;28;20520;-39
2022/11/21 00:51:49;;;;;;;50.22;16.13;;;4.10;99.90;;;;;;5034647;28;20489;-39
2022/11/21 00:54:14;;;;;;;45.90;15.93;;;4.10;99.90;;;;;;5035210;28;20083;-38
2022/11/21 00:56:40;;;;;;;48.33;14.75;;;4.00;99.90;;;;;;5051607;28;20021;-36
2022/11/21 00:59:06;;;;;;;35.88;13.68;;;4.00;99.90;;;;;;5052834;28;20033;-38
2022/11/21 01:01:31;;;;;;;37.33;13.95;;;4.00;99.90;;;;;;5051903;28;20021;-37
2022/11/21 01:03:58;;;;;;;36.47;13.05;;;4.00;99.90;;;;;;5051667;28;20481;-37
2022/11/21 01:06:23;;;;;;;38.70;14.80;;;4.00;99.90;;;;;;5051547;28;20493;-37
2022/11/21 01:08:49;;;;;;;42.22;15.35;;;4.00;99.90;;;;;;5043530;28;20071;-37
2022/11/21 01:11:17;;;;;;;40.83;14.73;;;3.90;99.90;;;;;;5047397;28;20029;-37
2022/11/21 01:13:43;;;;;;;41.88;15.18;;;3.90;99.90;;;;;;5052565;28;20041;-36
2022/11/21 01:16:12;;;;;;;42.75;14.18;;;4.00;99.90;;;;;;5051885;28;20025;-38
2022/11/21 01:18:38;;;;;;;41.17;15.10;;;4.00;99.90;;;;;;5052000;28;20036;-38
2022/11/21 01:21:15;;;;;;;43.97;15.90;;;4.00;99.90;;;;;;5052753;28;20488;-38
2022/11/21 01:23:41;;;;;;;35.97;11.77;;;4.00;99.90;;;;;;5050991;28;20033;-39
2022/11/21 01:26:15;;;;;;;42.55;16.50;;;4.00;99.90;;;;;;5051590;28;20102;-39
2022/11/21 01:28:41;;;;;;;43.95;15.93;;;3.90;99.90;;;;;;5051252;28;20437;-38
2022/11/21 01:31:10;;;;;;;41.00;14.73;;;3.80;99.90;;;;;;5051652;28;20033;-39
2022/11/21 01:33:36;;;;;;;45.50;14.32;;;3.70;99.90;;;;;;5050890;28;20036;-38
2022/11/21 01:36:22;;;;;;;41.28;16.10;;;3.70;99.90;;;;;;5049214;28;20382;-37
2022/11/21 01:38:50;;;;;;;52.17;17.13;;;3.70;99.90;;;;;;5032593;28;20105;-38
2022/11/21 01:41:24;;;;;;;36.58;15.20;;;3.80;99.90;;;;;;5043406;28;20032;-38
2022/11/21 01:43:50;;;;;;;50.17;15.38;;;3.70;99.90;;;;;;5052764;28;20025;-38
2022/11/21 01:46:18;;;;;;;47.92;16.35;;;3.80;99.90;;;;;;5049832;28;20107;-38
2022/11/21 01:48:56;;;;;;;42.42;15.65;;;3.80;99.90;;;;;;5051131;28;20041;-58
2022/11/21 01:51:34;;;;;;;48.75;17.10;;;3.80;99.90;;;;;;5050597;28;20033;-38
2022/11/21 01:54:22;;;;;;;43.00;15.23;;;3.90;99.90;;;;;;5052038;28;20033;-37
2022/11/21 01:56:55;;;;;;;44.15;16.58;;;3.90;99.90;;;;;;5054973;28;20040;-38
2022/11/21 01:59:29;;;;;;;43.28;16.85;;;3.80;99.90;;;;;;5054950;28;20043;-38
2022/11/21 02:01:58;;;;;;;43.20;15.98;;;3.90;99.90;;;;;;5025060;28;20028;-37
2022/11/21 02:04:27;;;;;;;53.90;17.25;;;3.90;99.90;;;;;;5055892;28;20039;-37
2022/11/21 02:06:52;;;;;;;46.70;16.48;;;3.90;99.90;;;;;;5056223;28;20075;-39
2022/11/21 02:09:19;;;;;;;42.65;16.00;;;3.80;99.90;;;;;;5055888;28;20025;-44
2022/11/21 02:12:22;;;;;;;38.67;14.93;;;3.80;99.90;;;;;;5051480;28;20033;-36
2022/11/21 02:14:48;;;;;;;51.78;15.52;;;3.90;99.90;;;;;;5038241;28;20029;-38
2022/11/21 02:17:17;;;;;;;42.13;15.30;;;3.80;99.90;;;;;;5054190;28;20021;-38
2022/11/21 02:19:58;;;;;;;52.92;15.43;;;3.80;99.90;;;;;;5055770;28;20481;-36
2022/11/21 02:22:43;;;;;;;48.95;16.30;;;3.70;99.90;;;;;;5055707;28;20496;-38
2022/11/21 02:25:14;;;;;;;50.05;14.55;;;3.70;99.90;;;;;;5054403;28;20070;-38
2022/11/21 02:27:40;;;;;;;39.60;14.65;;;3.70;99.90;;;;;;5055687;28;20477;-38
2022/11/21 02:30:08;;;;;;;45.88;16.15;;;3.80;99.90;;;;;;5036730;28;20020;-39
2022/11/21 02:32:37;;;;;;;36.95;14.57;;;3.80;99.90;;;;;;5052611;28;20033;-39
2022/11/21 02:35:04;;;;;;;43.53;15.13;;;3.80;99.90;;;;;;5055467;28;20021;-45
2022/11/21 02:37:32;;;;;;;46.97;15.70;;;3.80;99.90;;;;;;5054530;28;20033;-39
2022/11/21 02:40:02;;;;;;;46.05;16.40;;;3.70;99.90;;;;;;5055442;28;20028;-39
2022/11/21 02:42:38;;;;;;;39.25;14.57;;;3.60;99.90;;;;;;5053823;28;20492;-37
2022/11/21 02:45:15;;;;;;;48.38;14.70;;;3.70;99.90;;;;;;5055316;28;20094;-34
2022/11/21 02:47:42;;;;;;;43.47;15.15;;;3.70;99.90;;;;;;5043063;28;20025;-38
2022/11/21 02:50:15;;;;;;;39.63;15.40;;;3.70;99.90;;;;;;5055333;28;20029;-43
2022/11/21 02:52:40;;;;;;;54.78;17.50;;;3.70;99.90;;;;;;5054197;28;20082;-39
2022/11/21 02:55:07;;;;;;;41.05;15.98;;;3.70;99.90;;;;;;5054435;28;20033;-38
2022/11/21 02:57:33;;;;;;;40.75;16.45;;;3.60;99.90;;;;;;5055172;28;20031;-38
2022/11/21 02:59:59;;;;;;;41.90;14.20;;;3.60;99.90;;;;;;5055102;28;20532;-38
2022/11/21 03:02:24;;;;;;;40.10;15.68;;;3.60;99.90;;;;;;5053282;28;20060;-39
2022/11/21 03:04:50;;;;;;;62.47;13.50;;;3.50;99.90;;;;;;5054607;28;20036;-38
2022/11/21 03:07:16;;;;;;;32.55;14.07;;;3.50;99.90;;;;;;5055135;28;20450;-39
2022/11/21 03:09:42;;;;;;;32.05;13.05;;;3.50;99.90;;;;;;5054894;28;20567;-37
2022/11/21 03:12:08;;;;;;;53.17;13.63;;;3.40;99.90;;;;;;5034849;28;20041;-37
2022/11/21 03:14:35;;;;;;;38.88;14.30;;;3.50;99.90;;;;;;5052949;28;20388;-37
2022/11/21 03:17:01;;;;;;;46.35;14.98;;;3.60;99.90;;;;;;5053944;28;20017;-38
2022/11/21 03:19:27;;;;;;;53.53;15.38;;;3.70;99.90;;;;;;5036408;28;20025;-39
2022/11/21 03:21:53;;;;;;;39.75;14.38;;;3.70;99.90;;;;;;5054628;28;20100;-38
2022/11/21 03:24:19;;;;;;;31.33;13.65;;;3.70;99.90;;;;;;5053104;28;20529;-38
2022/11/21 03:26:44;;;;;;;39.65;14.82;;;3.60;99.90;;;;;;5054582;28;20492;-39
2022/11/21 03:29:10;;;;;;;34.08;14.60;;;3.60;99.90;;;;;;5054472;28;20029;-51
2022/11/21 03:31:36;;;;;;;31.00;13.40;;;3.60;99.90;;;;;;5053465;28;20392;-39
2022/11/21 03:34:01;;;;;;;33.95;13.02;;;3.60;99.90;;;;;;5053240;28;20027;-38
2022/11/21 03:36:27;;;;;;;30.60;12.32;;;3.60;99.90;;;;;;5054357;28;20025;-38
2022/11/21 03:38:55;;;;;;;37.92;14.02;;;3.60;99.90;;;;;;5053998;28;20020;-37
2022/11/21 03:41:30;;;;;;;34.28;13.43;;;3.60;99.90;;;;;;5054520;28;20384;-38
2022/11/21 03:43:59;;;;;;;36.25;13.93;;;3.60;99.90;;;;;;5053841;28;20180;-38
2022/11/21 03:46:25;;;;;;;37.20;14.13;;;3.60;99.90;;;;;;5054159;28;20477;-39
2022/11/21 03:48:51;;;;;;;41.25;15.20;;;3.60;99.90;;;;;;5052466;28;20021;-38
2022/11/21 03:51:17;;;;;;;31.70;12.48;;;3.60;99.90;;;;;;5053988;28;20407;-39
2022/11/21 03:53:42;;;;;;;34.22;13.13;;;3.60;99.90;;;;;;5054026;28;20405;-39
2022/11/21 03:56:08;;;;;;;35.55;13.38;;;3.60;99.90;;;;;;5053035;28;20064;-38
2022/11/21 03:58:33;;;;;;;40.17;14.98;;;3.60;99.90;;;;;;5053308;28;20396;-39
2022/11/21 04:00:59;;;;;;;36.45;14.63;;;3.70;99.90;;;;;;5052713;28;20023;-39
2022/11/21 04:03:25;;;;;;;37.53;13.52;;;3.70;99.90;;;;;;5044450;28;20524;-38
2022/11/21 04:05:50;;;;;;;37.20;13.85;;;3.60;99.90;;;;;;5053824;28;20040;-38
2022/11/21 04:08:16;;;;;;;37.83;14.80;;;3.60;99.90;;;;;;5053076;28;20025;-38
2022/11/21 04:10:50;;;;;;;46.28;15.20;;;3.60;99.90;;;;;;5053633;28;20524;-38
2022/11/21 04:13:16;;;;;;;35.55;13.00;;;3.70;99.90;;;;;;5039256;28;20049;-38
2022/11/21 04:15:42;;;;;;;40.30;13.52;;;3.70;99.90;;;;;;5053091;28;20067;-43
2022/11/21 04:18:07;;;;;;;38.55;13.60;;;3.70;99.90;;;;;;5052695;28;20045;-38
2022/11/21 04:20:33;;;;;;;46.20;14.13;;;3.70;99.90;;;;;;5035744;28;20029;-39
2022/11/21 04:22:59;;;;;;;42.67;14.25;;;3.70;99.90;;;;;;5052778;28;20025;-39
2022/11/21 04:25:24;;;;;;;36.08;14.23;;;3.70;99.90;;;;;;5052693;28;20478;-38
2022/11/21 04:27:50;;;;;;;44.38;14.00;;;3.60;99.90;;;;;;5053413;28;20040;-38
2022/11/21 04:30:16;;;;;;;38.88;13.40;;;3.60;99.90;;;;;;5053676;28;20039;-38
2022/11/21 04:32:42;;;;;;;41.17;13.30;;;3.70;99.90;;;;;;5046416;28;20025;-37
2022/11/21 04:35:08;;;;;;;42.70;14.43;;;3.60;99.90;;;;;;5052485;28;20036;-38
2022/11/21 04:37:34;;;;;;;40.55;13.77;;;3.60;99.90;;;;;;5034929;28;20033;-39
2022/11/21 04:39:59;;;;;;;42.53;16.02;;;3.50;99.90;;;;;;5053113;28;20025;-38
2022/11/21 04:42:25;;;;;;;41.45;14.25;;;3.50;99.90;;;;;;5051305;28;20397;-38
2022/11/21 04:44:51;;;;;;;39.42;14.48;;;3.40;99.90;;;;;;5052208;28;20468;-38
2022/11/21 04:47:16;;;;;;;35.70;14.05;;;3.50;99.90;;;;;;5034551;28;20033;-38
2022/11/21 04:49:42;;;;;;;45.38;16.13;;;3.60;99.90;;;;;;5051184;28;20370;-38
2022/11/21 04:52:07;;;;;;;38.33;14.15;;;3.60;99.90;;;;;;5051253;28;20021;-39
2022/11/21 04:54:33;;;;;;;44.90;14.82;;;3.50;99.90;;;;;;5052961;28;20048;-38
2022/11/21 04:56:59;;;;;;;58.00;16.30;;;3.60;99.90;;;;;;5052263;28;20017;-38
2022/11/21 04:59:24;;;;;;;45.30;15.20;;;3.70;99.90;;;;;;5033776;28;20025;-39
2022/11/21 05:01:50;;;;;;;38.35;15.85;;;3.70;99.90;;;;;;5051392;28;20017;-37
2022/11/21 05:04:15;;;;;;;42.10;14.95;;;3.70;99.90;;;;;;5050403;28;20078;-36
2022/11/21 05:06:41;;;;;;;47.45;14.57;;;3.70;99.90;;;;;;5052687;28;20040;-39
2022/11/21 05:09:06;;;;;;;40.28;15.25;;;3.80;99.90;;;;;;5052211;28;20054;-36
2022/11/21 05:14:16;;;;;;;54.60;14.55;;;3.80;99.90;;;;;;5051541;28;20474;-36
2022/11/21 05:16:41;;;;;;;55.70;15.55;;;3.80;99.90;;;;;;5051349;28;20025;-38
2022/11/21 05:19:08;;;;;;;48.97;16.42;;;3.70;99.90;;;;;;5052084;28;20067;-38
2022/11/21 05:21:34;;;;;;;48.28;15.18;;;3.70;99.90;;;;;;5033793;28;20029;-38
2022/11/21 05:23:59;;;;;;;42.63;13.98;;;3.70;99.90;;;;;;5052997;28;20032;-39
2022/11/21 05:26:25;;;;;;;44.58;14.85;;;3.70;99.90;;;;;;5051636;28;20032;-39
2022/11/21 05:28:51;;;;;;;49.08;15.35;;;3.80;99.90;;;;;;5056056;28;20031;-38
2022/11/21 05:31:16;;;;;;;40.97;14.45;;;3.80;99.90;;;;;;5053961;28;20045;-39
2022/11/21 05:33:42;;;;;;;44.33;15.43;;;3.80;99.90;;;;;;5056002;28;20033;-38
2022/11/21 05:36:07;;;;;;;41.88;13.98;;;3.90;99.90;;;;;;5054740;28;20075;-38
2022/11/21 05:38:33;;;;;;;46.08;15.85;;;3.90;99.90;;;;;;5055243;28;20029;-38
2022/11/21 05:40:59;;;;;;;46.42;15.25;;;4.00;99.90;;;;;;5056538;28;20147;-38
2022/11/21 05:46:08;;;;;;;45.65;14.88;;;4.10;99.90;;;;;;5055619;28;20083;-38
2022/11/21 05:48:35;;;;;;;42.83;14.73;;;4.10;99.90;;;;;;5056427;28;20432;-39
2022/11/21 05:51:02;;;;;;;44.95;15.15;;;4.10;99.90;;;;;;5054925;28;20488;-37
2022/11/21 05:53:27;;;;;;;44.95;15.60;;;4.00;99.90;;;;;;5051849;28;20472;-56
2022/11/21 05:55:53;;;;;;;46.17;15.05;;;4.00;99.90;;;;;;5056210;28;20021;-39
2022/11/21 05:58:19;;;;;;;42.55;15.00;;;3.90;99.90;;;;;;5056235;28;20028;-39
2022/11/21 06:00:44;;;;;;;49.33;14.75;;;4.00;99.90;;;;;;5054144;28;20439;-38
2022/11/21 06:03:26;;;;;;;37.15;14.43;;;3.90;99.90;;;;;;5055536;28;20021;-38
2022/11/21 06:05:58;;;;;;;39.03;14.40;;;3.90;99.90;;;;;;5055479;28;20461;-38
2022/11/21 06:08:25;;;;;;;43.22;14.48;;;4.00;99.90;;;;;;5055605;28;20025;-37
2022/11/21 06:10:51;;;;;;;40.85;13.95;;;4.00;99.90;;;;;;5056198;28;20479;-38
2022/11/21 06:13:22;;;;;;;38.33;13.75;;;4.00;99.90;;;;;;5052537;28;20037;-38
2022/11/21 06:15:55;;;;;;;46.50;15.68;;;4.10;99.90;;;;;;5054989;28;20044;-38
2022/11/21 06:21:27;;;;;;;44.90;15.07;;;4.20;99.90;;;;;;5054042;28;20044;-38
2022/11/21 06:23:57;;;;;;;45.03;16.25;;;4.30;99.90;;;;;;5055361;28;20045;-37
2022/11/21 06:26:25;;;;;;;35.88;12.95;;;4.20;99.90;;;;;;5055297;28;20539;-31
2022/11/21 06:28:51;;;;;;;42.03;15.50;;;4.20;99.90;;;;;;5055547;28;20087;-30
2022/11/21 06:31:19;;;;;;;40.75;14.57;;;4.20;99.90;;;;;;5053780;28;20476;-33
2022/11/21 06:33:45;;;;;;;38.05;14.32;;;4.20;99.90;;;;;;5055790;28;20021;-34
2022/11/21 06:36:15;;;;;;;38.35;14.20;;;4.10;99.90;;;;;;5052255;28;20537;-30
2022/11/21 06:39:01;;;;;;;44.90;14.15;;;4.10;99.90;;;;;;5054287;28;20024;-32
2022/11/21 06:41:29;;;;;;;33.35;11.55;;;4.10;99.90;;;;;;5051337;28;20536;-32
2022/11/21 06:44:00;;;;;;;36.30;13.38;;;4.20;99.90;;;;;;5050397;28;20032;-33
2022/11/21 06:46:26;;;;;;;33.83;11.60;;;4.20;99.90;;;;;;5051643;28;20086;-35
2022/11/21 06:48:52;;;;;;;31.10;11.80;;;4.20;99.90;;;;;;5051168;28;20063;-32
2022/11/21 06:51:21;;;;;;;31.75;10.80;;;4.30;99.90;;;;;;5052864;28;20029;-29
2022/11/21 06:53:54;;;;;;;32.03;11.57;;;4.30;99.90;;;;;;5050266;28;20052;-34
2022/11/21 06:56:20;;;;;;;31.00;11.43;;;4.40;99.90;;;;;;5052715;28;20025;-32
2022/11/21 06:58:46;;;;;;;25.67;9.55;;;4.40;99.90;;;;;;5052395;28;20473;-34
2022/11/21 07:01:12;;;;;;;28.42;10.80;;;4.40;99.90;;;;;;5036472;28;20056;-28
2022/11/21 07:03:38;;;;;;;27.42;10.25;;;4.40;99.90;;;;;;5053029;28;20036;-29
2022/11/21 07:06:05;;;;;;;33.50;10.43;;;4.30;99.90;;;;;;5055030;28;20025;-30
2022/11/21 07:08:34;;;;;;;28.30;9.77;;;4.20;99.90;;;;;;5054041;28;20051;-30
2022/11/21 07:11:04;;;;;;;30.95;10.65;;;4.20;99.90;;;;;;5052790;28;20028;-30
2022/11/21 07:13:31;;;;;;;23.45;9.55;;;4.30;99.90;;;;;;5053569;28;20072;-30
2022/11/21 07:16:02;;;;;;;27.08;10.88;;;4.30;99.90;;;;;;5052057;28;20033;-39
2022/11/21 07:18:28;;;;;;;33.63;11.23;;;4.40;99.90;;;;;;5052773;28;20078;-29
2022/11/21 07:20:58;;;;;;;33.20;11.30;;;4.40;99.90;;;;;;5052124;28;20021;-31
2022/11/21 07:23:23;;;;;;;36.65;10.65;;;4.40;99.90;;;;;;5036172;28;20021;-37
2022/11/21 07:25:49;;;;;;;35.45;12.18;;;4.30;99.90;;;;;;5058195;28;20074;-27
2022/11/21 07:28:15;;;;;;;40.25;11.93;;;4.30;99.90;;;;;;5053433;28;20029;-28
2022/11/21 07:30:40;;;;;;;35.13;12.00;;;4.30;99.90;;;;;;5053543;28;20052;-28
2022/11/21 07:33:06;;;;;;;36.38;11.93;;;4.30;99.90;;;;;;5053699;28;20040;-30
2022/11/21 07:35:33;;;;;;;36.05;12.65;;;4.30;99.90;;;;;;5052356;28;20388;-31
2022/11/21 07:37:59;;;;;;;45.42;12.77;;;4.20;99.90;;;;;;5046652;28;20108;-29
2022/11/21 07:40:25;;;;;;;38.35;12.57;;;4.20;99.90;;;;;;5034335;28;20105;-30
2022/11/21 07:42:50;;;;;;;44.58;14.80;;;4.30;99.90;;;;;;5047849;28;20096;-32
2022/11/21 07:45:16;;;;;;;37.13;13.40;;;4.40;99.90;;;;;;5053309;28;20481;-33
2022/11/21 07:47:42;;;;;;;42.25;12.32;;;4.40;99.90;;;;;;5051170;28;20029;-28
2022/11/21 07:50:10;;;;;;;48.60;13.35;;;4.50;99.90;;;;;;5051724;28;20542;-30
2022/11/21 07:52:36;;;;;;;46.28;14.80;;;4.50;99.90;;;;;;5053311;28;20067;-29
2022/11/21 07:55:03;;;;;;;42.50;13.35;;;4.60;99.90;;;;;;5052875;28;20469;-31
2022/11/21 07:57:29;;;;;;;35.53;12.63;;;4.60;99.90;;;;;;5053003;28;20387;-29
2022/11/21 07:59:55;;;;;;;35.40;12.98;;;4.60;99.90;;;;;;5053158;28;20476;-33
2022/11/21 08:02:23;;;;;;;40.85;12.73;;;4.60;99.90;;;;;;5056179;28;20028;-29
2022/11/21 08:04:48;;;;;;;63.70;29.08;;;4.60;99.90;;;;;;5053076;28;20473;-31
2022/11/21 08:07:15;;;;;;;33.25;12.45;;;4.70;99.90;;;;;;5032928;28;20052;-34
2022/11/21 08:09:41;;;;;;;38.95;13.23;;;4.70;99.90;;;;;;5051536;28;20036;-35
2022/11/21 08:12:07;;;;;;;40.33;14.88;;;4.70;99.90;;;;;;5051953;28;20393;-36
2022/11/21 08:14:33;;;;;;;30.23;10.95;;;4.70;99.90;;;;;;5052024;28;20556;-33
2022/11/21 08:16:59;;;;;;;34.00;12.52;;;4.70;99.90;;;;;;5049645;28;20043;-32
2022/11/21 08:19:25;;;;;;;32.50;12.75;;;4.70;99.90;;;;;;5054615;28;20474;-32
2022/11/21 08:21:50;;;;;;;40.50;12.85;;;4.80;99.90;;;;;;5055802;28;20036;-31
2022/11/21 08:24:16;;;;;;;38.65;13.70;;;4.90;99.90;;;;;;5052728;28;20397;-34
2022/11/21 08:26:43;;;;;;;35.63;17.27;;;4.90;99.90;;;;;;5052228;28;20024;-31
2022/11/21 08:29:09;;;;;;;28.95;11.32;;;4.90;99.90;;;;;;5052702;28;20107;-32
2022/11/21 08:31:36;;;;;;;35.38;16.13;;;4.90;99.90;;;;;;5052127;28;20063;-33
2022/11/21 08:34:02;;;;;;;42.20;22.55;;;4.90;99.90;;;;;;5051067;28;20023;-35
2022/11/21 08:36:27;;;;;;;34.22;15.00;;;5.10;99.90;;;;;;5051532;28;20435;-29
2022/11/21 08:38:53;;;;;;;45.15;19.00;;;5.10;99.90;;;;;;5050881;28;20530;-29
2022/11/21 08:44:04;;;;;;;36.00;11.82;;;5.20;99.90;;;;;;5052446;28;20040;-30
2022/11/21 08:46:32;;;;;;;34.30;14.03;;;5.20;99.90;;;;;;5050676;28;20082;-30
2022/11/21 08:48:58;;;;;;;29.58;8.68;;;5.20;99.90;;;;;;5048651;28;20288;-40
2022/11/21 08:51:24;;;;;;;31.02;14.20;;;5.30;99.90;;;;;;5056712;28;20029;-32
2022/11/21 08:53:50;;;;;;;36.22;14.60;;;5.20;99.90;;;;;;5034675;28;20029;-30
2022/11/21 08:56:15;;;;;;;46.70;17.85;;;5.30;99.90;;;;;;5052454;28;20029;-38
2022/11/21 08:58:41;;;;;;;37.17;13.82;;;5.40;99.90;;;;;;5053073;28;20074;-30
2022/11/21 09:01:07;;;;;;;30.02;12.80;;;5.50;99.90;;;;;;5052808;28;20151;-30
2022/11/21 09:03:34;;;;;;;39.63;13.48;;;5.50;99.90;;;;;;5052694;28;20017;-29
2022/11/21 09:06:00;;;;;;;35.72;11.55;;;5.60;99.90;;;;;;5052898;28;20029;-30
2022/11/21 09:08:25;;;;;;;35.35;11.82;;;5.60;99.90;;;;;;5051300;28;20413;-29
2022/11/21 09:10:51;;;;;;;36.58;13.68;;;5.60;99.90;;;;;;5050106;28;20108;-30
2022/11/21 09:13:18;;;;;;;27.85;12.75;;;5.60;99.90;;;;;;5051255;28;20045;-31
2022/11/21 09:18:46;;;;;;;25.73;10.77;;;5.70;99.90;;;;;;5051496;28;20130;-31
2022/11/21 09:21:16;;;;;;;39.80;12.05;;;5.70;99.90;;;;;;5051727;28;20039;-32
2022/11/21 09:23:41;;;;;;;27.10;11.23;;;5.90;99.90;;;;;;5050695;28;20024;-29
2022/11/21 09:26:08;;;;;;;25.23;11.18;;;5.90;99.90;;;;;;5050153;28;20489;-31
2022/11/21 09:28:34;;;;;;;31.50;11.40;;;6.00;99.90;;;;;;5052511;28;20539;-33
2022/11/21 09:31:02;;;;;;;24.65;11.02;;;6.00;99.90;;;;;;5051002;28;20481;-34
2022/11/21 09:33:27;;;;;;;33.28;14.10;;;6.00;99.90;;;;;;5052549;28;20484;-31
2022/11/21 09:35:53;;;;;;;30.70;12.18;;;6.10;99.90;;;;;;5045944;28;20020;-34
2022/11/21 09:38:19;;;;;;;28.00;11.80;;;6.10;99.90;;;;;;5052640;28;20028;-32
2022/11/21 09:40:47;;;;;;;29.42;11.20;;;6.10;99.90;;;;;;5052360;28;20047;-32
2022/11/21 09:43:52;;;;;;;30.27;14.63;;;6.10;99.90;;;;;;5051603;28;20366;-32
2022/11/21 09:46:24;;;;;;;30.38;11.65;;;6.10;99.90;;;;;;5051338;28;20104;-30
2022/11/21 09:48:57;;;;;;;37.58;16.67;;;6.10;99.90;;;;;;5023285;28;20477;-28
2022/11/21 09:51:26;;;;;;;32.35;16.73;;;6.20;99.90;;;;;;5032475;28;20030;-41
2022/11/21 09:54:10;;;;;;;28.88;12.35;;;6.30;99.90;;;;;;5050020;28;20470;-40
2022/11/21 09:56:39;;;;;;;32.30;14.60;;;6.40;99.90;;;;;;5032443;28;20025;-38
2022/11/21 09:59:11;;;;;;;35.40;14.45;;;6.40;99.90;;;;;;5052316;28;20473;-30
2022/11/21 10:01:37;;;;;;;32.58;11.57;;;6.40;99.90;;;;;;5052630;28;20029;-32
2022/11/21 10:04:04;;;;;;;35.42;11.90;;;6.50;99.90;;;;;;5033523;28;20024;-35
2022/11/21 10:06:37;;;;;;;25.02;11.45;;;6.50;99.90;;;;;;5049354;28;20477;-29
2022/11/21 10:09:31;;;;;;;32.67;11.20;;;6.60;99.90;;;;;;5051532;28;20017;-33
2022/11/21 10:15:23;;;;;;;30.77;12.73;;;6.70;99.90;;;;;;5039098;28;20405;-37
2022/11/21 10:18:03;;;;;;;36.22;13.88;;;6.90;99.90;;;;;;5054695;28;20044;-31
2022/11/21 10:21:01;;;;;;;32.97;11.82;;;6.90;99.90;;;;;;5049661;28;20047;-35
2022/11/21 10:24:11;;;;;;;40.20;14.85;;;6.90;99.90;;;;;;5035545;28;20041;-29
2022/11/21 10:26:58;;;;;;;33.30;13.70;;;7.00;99.90;;;;;;5037999;28;20497;-30
2022/11/21 10:29:26;;;;;;;34.97;14.32;;;7.10;99.90;;;;;;5055479;28;20108;-29
2022/11/21 10:31:56;;;;;;;30.15;13.30;;;7.20;99.90;;;;;;5053471;28;20473;-30
2022/11/21 10:34:25;;;;;;;28.80;12.20;;;7.20;99.90;;;;;;5052201;28;20029;-31
2022/11/21 10:36:58;;;;;;;29.00;14.18;;;7.20;99.90;;;;;;5054749;28;20032;-32
2022/11/21 10:39:48;;;;;;;32.33;13.40;;;7.20;99.90;;;;;;5054599;28;20477;-33
2022/11/21 10:42:32;;;;;;;32.60;14.15;;;7.20;99.90;;;;;;5028169;28;20540;-34
2022/11/21 10:47:48;;;;;;;35.85;14.65;;;7.40;99.90;;;;;;5055496;28;20039;-36
2022/11/21 10:50:45;;;;;;;28.13;13.55;;;7.40;99.90;;;;;;5054008;28;20033;-34
2022/11/21 10:56:15;;;;;;;29.90;12.30;;;7.60;99.90;;;;;;5053843;28;20090;-34
2022/11/21 10:58:46;;;;;;;27.85;11.30;;;7.60;99.90;;;;;;5051411;28;20032;-33
2022/11/21 11:01:28;;;;;;;29.23;11.75;;;7.60;99.90;;;;;;5032647;28;20461;-38
2022/11/21 11:04:07;;;;;;;25.33;11.82;;;7.70;99.90;;;;;;5050832;28;20534;-36
2022/11/21 11:06:33;;;;;;;28.17;11.30;;;7.90;99.90;;;;;;5054947;28;20524;-32
2022/11/21 11:08:58;;;;;;;29.98;12.23;;;8.10;99.90;;;;;;5053615;28;20017;-33
2022/11/21 11:11:25;;;;;;;27.25;10.65;;;8.20;99.90;;;;;;5052053;28;20440;-29
2022/11/21 11:14:02;;;;;;;19.52;9.82;;;8.20;99.90;;;;;;5050046;28;20064;-32
2022/11/21 11:16:29;;;;;;;20.27;9.18;;;8.30;99.90;;;;;;5054329;28;20488;-34
2022/11/21 11:19:00;;;;;;;21.15;9.88;;;8.40;99.90;;;;;;5054098;28;20032;-33
2022/11/21 11:21:45;;;;;;;28.30;9.73;;;8.40;99.90;;;;;;5053676;28;20039;-33
2022/11/21 11:24:10;;;;;;;28.33;11.15;;;8.40;99.90;;;;;;5054133;28;20484;-33
2022/11/21 11:26:45;;;;;;;27.80;10.52;;;8.50;99.90;;;;;;5035697;28;20025;-38
2022/11/21 11:29:23;;;;;;;24.65;10.57;;;8.60;99.90;;;;;;5053968;28;20154;-31
2022/11/21 11:31:58;;;;;;;27.38;14.60;;;8.50;99.90;;;;;;5036021;28;20037;-34
2022/11/21 11:34:44;;;;;;;78.63;30.85;;;8.60;99.90;;;;;;5053999;28;20120;-31
2022/11/21 11:37:22;;;;;;;18.67;10.15;;;8.80;99.90;;;;;;5053657;28;20065;-35
2022/11/21 11:39:54;;;;;;;30.65;16.70;;;8.90;99.90;;;;;;5054111;28;20025;-30
2022/11/21 11:48:07;;;;;;;14.85;5.63;;;9.00;99.90;;;;;;5051180;28;20081;-41
2022/11/21 11:50:51;;;;;;;9.80;5.72;;;9.00;99.90;;;;;;5045887;28;20028;-38
2022/11/21 11:53:25;;;;;;;18.63;12.57;;;9.00;99.90;;;;;;5046626;28;20115;-30
2022/11/21 11:56:19;;;;;;;12.15;5.85;;;9.00;99.90;;;;;;5046676;28;20059;-33
2022/11/21 11:58:48;;;;;;;18.05;9.48;;;9.10;99.90;;;;;;5027218;28;20083;-31
2022/11/21 12:01:23;;;;;;;14.55;5.93;;;9.20;99.90;;;;;;5045112;28;20078;-32
2022/11/21 12:04:09;;;;;;;15.25;7.07;;;9.20;99.90;;;;;;5052922;28;20033;-35
2022/11/21 12:06:45;;;;;;;27.35;15.05;;;9.40;99.90;;;;;;5050982;28;20036;-33
2022/11/21 12:09:37;;;;;;;13.02;5.72;;;9.50;99.90;;;;;;5053558;28;20498;-33
2022/11/21 12:12:15;;;;;;;8.45;4.38;;;9.50;99.90;;;;;;5053680;28;20029;-34
2022/11/21 12:18:07;;;;;;;10.55;3.25;;;9.50;99.90;;;;;;5052186;28;20044;-32
2022/11/21 12:20:44;;;;;;;5.88;2.97;;;9.50;99.90;;;;;;5048433;28;20437;-33
2022/11/21 12:23:11;;;;;;;9.25;3.58;;;9.40;99.90;;;;;;5049318;28;20021;-33
2022/11/21 12:25:50;;;;;;;12.07;3.25;;;9.30;99.90;;;;;;5053305;28;20036;-35
2022/11/21 12:28:32;;;;;;;7.35;3.30;;;9.10;99.90;;;;;;5043488;28;20040;-33
2022/11/21 12:31:13;;;;;;;10.88;3.30;;;9.10;99.90;;;;;;5053181;28;20060;-34
2022/11/21 12:33:57;;;;;;;11.32;5.15;;;9.10;99.90;;;;;;5050934;28;20035;-34
2022/11/21 12:36:47;;;;;;;5.95;4.57;;;9.20;99.90;;;;;;5048752;28;20037;-35
2022/11/21 12:39:33;;;;;;;7.75;2.58;;;9.10;99.90;;;;;;5048673;28;20104;-33
2022/11/21 12:45:23;;;;;;;13.73;4.47;;;9.00;99.90;;;;;;5051194;28;20527;-35
2022/11/21 12:54:42;;;;;;;7.95;3.95;;;8.90;99.90;;;;;;5050486;28;20487;-32
2022/11/21 12:57:23;;;;;;;7.28;3.25;;;9.00;99.90;;;;;;5050495;28;20531;-33
2022/11/21 13:00:08;;;;;;;6.32;2.05;;;9.00;99.90;;;;;;5051404;28;20024;-33
2022/11/21 13:03:11;;;;;;;11.48;1.60;;;9.10;99.90;;;;;;5049242;28;20033;-35
2022/11/21 13:05:41;;;;;;;12.35;2.10;;;9.00;99.90;;;;;;5050236;28;20496;-30
2022/11/21 13:08:10;;;;;;;14.48;2.30;;;8.90;99.90;;;;;;5051421;28;20540;-34
2022/11/21 13:10:40;;;;;;;13.02;3.13;;;8.90;99.90;;;;;;5050896;28;20484;-32
2022/11/21 13:13:09;;;;;;;9.27;2.22;;;8.80;99.90;;;;;;5046628;28;20032;-36
2022/11/21 13:15:59;;;;;;;10.35;2.00;;;8.80;99.90;;;;;;5044089;28;20493;-33
2022/11/21 13:18:30;;;;;;;5.90;2.10;;;8.90;99.90;;;;;;5044769;28;20485;-36
2022/11/21 13:20:55;;;;;;;11.40;2.40;;;8.90;99.90;;;;;;5043444;28;20171;-37
2022/11/21 13:23:41;;;;;;;12.63;2.20;;;9.00;99.90;;;;;;5044669;28;21298;-33
2022/11/21 13:26:27;;;;;;;4.03;2.25;;;8.90;99.90;;;;;;5044120;28;20061;-36
2022/11/21 13:29:12;;;;;;;9.93;2.33;;;8.90;99.90;;;;;;5046683;28;20469;-35
2022/11/21 13:31:39;;;;;;;11.02;2.47;;;9.00;99.90;;;;;;5044990;28;20551;-39
2022/11/21 13:34:25;;;;;;;6.15;2.22;;;9.00;99.90;;;;;;5044487;28;20013;-37